sensor_id;sensor_type;location;lat;lon;timestamp;P1;durP1;ratioP1;P2;durP2;ratioP2
66143;SDS011;52947;50.842;6.084;2022-12-07T00:01:05;28.45;;;17.42;;
66143;SDS011;52947;50.842;6.084;2022-12-07T00:03:33;29.13;;;16.83;;
66143;SDS011;52947;50.842;6.084;2022-12-07T00:06:02;27.38;;;16.85;;
66143;SDS011;52947;50.842;6.084;2022-12-07T00:08:32;26.85;;;16.77;;
66143;SDS011;52947;50.842;6.084;2022-12-07T00:11:01;29.80;;;17.20;;
66143;SDS011;52947;50.842;6.084;2022-12-07T00:13:30;29.88;;;16.75;;
66143;SDS011;52947;50.842;6.084;2022-12-07T00:16:01;24.37;;;16.27;;
66143;SDS011;52947;50.842;6.084;2022-12-07T00:18:29;26.08;;;16.40;;
66143;SDS011;52947;50.842;6.084;2022-12-07T00:21:00;25.98;;;16.10;;
66143;SDS011;52947;50.842;6.084;2022-12-07T00:23:28;33.35;;;16.92;;
66143;SDS011;52947;50.842;6.084;2022-12-07T00:26:02;26.92;;;17.27;;
66143;SDS011;52947;50.842;6.084;2022-12-07T00:28:31;27.23;;;16.15;;
66143;SDS011;52947;50.842;6.084;2022-12-07T00:31:02;25.60;;;15.40;;
66143;SDS011;52947;50.842;6.084;2022-12-07T00:33:31;27.73;;;16.63;;
66143;SDS011;52947;50.842;6.084;2022-12-07T00:35:59;23.77;;;15.27;;
66143;SDS011;52947;50.842;6.084;2022-12-07T00:38:29;30.55;;;16.85;;
66143;SDS011;52947;50.842;6.084;2022-12-07T00:40:59;28.90;;;17.38;;
66143;SDS011;52947;50.842;6.084;2022-12-07T00:43:28;26.77;;;16.38;;
66143;SDS011;52947;50.842;6.084;2022-12-07T00:45:56;27.48;;;16.95;;
66143;SDS011;52947;50.842;6.084;2022-12-07T00:48:26;23.67;;;15.73;;
66143;SDS011;52947;50.842;6.084;2022-12-07T00:53:22;20.73;;;15.00;;
66143;SDS011;52947;50.842;6.084;2022-12-07T00:55:50;24.52;;;16.13;;
66143;SDS011;52947;50.842;6.084;2022-12-07T00:58:18;27.08;;;15.43;;
66143;SDS011;52947;50.842;6.084;2022-12-07T01:00:46;22.02;;;15.88;;
66143;SDS011;52947;50.842;6.084;2022-12-07T01:03:14;25.90;;;15.60;;
66143;SDS011;52947;50.842;6.084;2022-12-07T01:05:50;26.17;;;15.80;;
66143;SDS011;52947;50.842;6.084;2022-12-07T01:08:19;26.02;;;16.60;;
66143;SDS011;52947;50.842;6.084;2022-12-07T01:10:47;26.13;;;15.88;;
66143;SDS011;52947;50.842;6.084;2022-12-07T01:13:15;29.55;;;15.40;;
66143;SDS011;52947;50.842;6.084;2022-12-07T01:15:44;23.45;;;15.68;;
66143;SDS011;52947;50.842;6.084;2022-12-07T01:18:12;23.97;;;15.93;;
66143;SDS011;52947;50.842;6.084;2022-12-07T01:20:40;23.92;;;15.27;;
66143;SDS011;52947;50.842;6.084;2022-12-07T01:23:09;27.70;;;16.00;;
66143;SDS011;52947;50.842;6.084;2022-12-07T01:25:36;21.50;;;14.93;;
66143;SDS011;52947;50.842;6.084;2022-12-07T01:28:04;24.85;;;14.88;;
66143;SDS011;52947;50.842;6.084;2022-12-07T01:30:32;26.35;;;15.52;;
66143;SDS011;52947;50.842;6.084;2022-12-07T01:33:00;25.42;;;15.73;;
66143;SDS011;52947;50.842;6.084;2022-12-07T01:35:28;24.75;;;15.57;;
66143;SDS011;52947;50.842;6.084;2022-12-07T01:37:56;24.50;;;17.30;;
66143;SDS011;52947;50.842;6.084;2022-12-07T01:40:25;24.83;;;17.55;;
66143;SDS011;52947;50.842;6.084;2022-12-07T01:42:53;29.63;;;18.42;;
66143;SDS011;52947;50.842;6.084;2022-12-07T01:48:09;38.63;;;20.25;;
66143;SDS011;52947;50.842;6.084;2022-12-07T01:50:39;30.85;;;21.15;;
66143;SDS011;52947;50.842;6.084;2022-12-07T01:53:09;35.95;;;21.35;;
66143;SDS011;52947;50.842;6.084;2022-12-07T01:55:40;33.77;;;21.73;;
66143;SDS011;52947;50.842;6.084;2022-12-07T01:58:11;35.90;;;21.63;;
66143;SDS011;52947;50.842;6.084;2022-12-07T02:00:39;39.67;;;23.13;;
66143;SDS011;52947;50.842;6.084;2022-12-07T02:03:09;32.60;;;21.63;;
66143;SDS011;52947;50.842;6.084;2022-12-07T02:05:42;37.65;;;22.92;;
66143;SDS011;52947;50.842;6.084;2022-12-07T02:08:11;41.88;;;22.48;;
66143;SDS011;52947;50.842;6.084;2022-12-07T02:15:41;43.27;;;23.60;;
66143;SDS011;52947;50.842;6.084;2022-12-07T02:18:18;39.92;;;22.95;;
66143;SDS011;52947;50.842;6.084;2022-12-07T02:20:51;34.38;;;22.27;;
66143;SDS011;52947;50.842;6.084;2022-12-07T02:30:52;40.88;;;22.70;;
66143;SDS011;52947;50.842;6.084;2022-12-07T02:33:24;39.58;;;20.75;;
66143;SDS011;52947;50.842;6.084;2022-12-07T02:35:57;34.38;;;20.90;;
66143;SDS011;52947;50.842;6.084;2022-12-07T02:38:31;39.42;;;21.15;;
66143;SDS011;52947;50.842;6.084;2022-12-07T02:41:06;36.75;;;21.85;;
66143;SDS011;52947;50.842;6.084;2022-12-07T02:43:38;35.38;;;21.75;;
66143;SDS011;52947;50.842;6.084;2022-12-07T02:46:11;38.15;;;22.38;;
66143;SDS011;52947;50.842;6.084;2022-12-07T02:48:41;37.92;;;22.13;;
66143;SDS011;52947;50.842;6.084;2022-12-07T02:51:11;37.67;;;22.40;;
66143;SDS011;52947;50.842;6.084;2022-12-07T02:58:06;35.38;;;21.42;;
66143;SDS011;52947;50.842;6.084;2022-12-07T03:00:45;34.00;;;21.50;;
66143;SDS011;52947;50.842;6.084;2022-12-07T03:03:21;38.47;;;22.42;;
66143;SDS011;52947;50.842;6.084;2022-12-07T03:06:01;35.58;;;21.35;;
66143;SDS011;52947;50.842;6.084;2022-12-07T03:08:43;35.72;;;21.95;;
66143;SDS011;52947;50.842;6.084;2022-12-07T03:11:16;36.40;;;22.30;;
66143;SDS011;52947;50.842;6.084;2022-12-07T03:13:54;36.53;;;21.25;;
66143;SDS011;52947;50.842;6.084;2022-12-07T03:16:27;43.75;;;23.13;;
66143;SDS011;52947;50.842;6.084;2022-12-07T03:19:00;34.20;;;20.90;;
66143;SDS011;52947;50.842;6.084;2022-12-07T03:21:31;43.83;;;22.38;;
66143;SDS011;52947;50.842;6.084;2022-12-07T03:24:03;35.28;;;20.83;;
66143;SDS011;52947;50.842;6.084;2022-12-07T03:26:36;39.88;;;22.15;;
66143;SDS011;52947;50.842;6.084;2022-12-07T03:29:08;34.15;;;21.60;;
66143;SDS011;52947;50.842;6.084;2022-12-07T03:31:54;33.85;;;21.17;;
66143;SDS011;52947;50.842;6.084;2022-12-07T03:34:30;38.33;;;21.33;;
66143;SDS011;52947;50.842;6.084;2022-12-07T03:37:02;39.33;;;22.33;;
66143;SDS011;52947;50.842;6.084;2022-12-07T03:39:36;30.75;;;20.90;;
66143;SDS011;52947;50.842;6.084;2022-12-07T03:42:07;41.72;;;21.92;;
66143;SDS011;52947;50.842;6.084;2022-12-07T03:44:37;33.67;;;21.08;;
66143;SDS011;52947;50.842;6.084;2022-12-07T03:47:06;44.25;;;23.23;;
66143;SDS011;52947;50.842;6.084;2022-12-07T03:49:42;38.80;;;20.85;;
66143;SDS011;52947;50.842;6.084;2022-12-07T03:52:16;33.63;;;21.38;;
66143;SDS011;52947;50.842;6.084;2022-12-07T03:54:51;40.63;;;22.55;;
66143;SDS011;52947;50.842;6.084;2022-12-07T03:57:24;37.10;;;21.10;;
66143;SDS011;52947;50.842;6.084;2022-12-07T04:02:21;35.00;;;21.30;;
66143;SDS011;52947;50.842;6.084;2022-12-07T04:04:52;33.50;;;20.73;;
66143;SDS011;52947;50.842;6.084;2022-12-07T04:07:20;37.08;;;21.70;;
66143;SDS011;52947;50.842;6.084;2022-12-07T04:09:47;39.17;;;22.10;;
66143;SDS011;52947;50.842;6.084;2022-12-07T04:12:15;36.30;;;21.77;;
66143;SDS011;52947;50.842;6.084;2022-12-07T04:14:43;38.63;;;21.95;;
66143;SDS011;52947;50.842;6.084;2022-12-07T04:17:11;41.75;;;22.95;;
66143;SDS011;52947;50.842;6.084;2022-12-07T04:19:39;39.83;;;22.80;;
66143;SDS011;52947;50.842;6.084;2022-12-07T04:22:08;42.92;;;23.30;;
66143;SDS011;52947;50.842;6.084;2022-12-07T04:24:36;38.13;;;22.90;;
66143;SDS011;52947;50.842;6.084;2022-12-07T04:27:03;37.78;;;22.23;;
66143;SDS011;52947;50.842;6.084;2022-12-07T04:29:31;40.80;;;21.65;;
66143;SDS011;52947;50.842;6.084;2022-12-07T04:31:59;34.00;;;19.95;;
66143;SDS011;52947;50.842;6.084;2022-12-07T04:34:27;37.20;;;21.00;;
66143;SDS011;52947;50.842;6.084;2022-12-07T04:36:55;35.92;;;21.58;;
66143;SDS011;52947;50.842;6.084;2022-12-07T04:39:24;36.20;;;20.80;;
66143;SDS011;52947;50.842;6.084;2022-12-07T04:41:53;37.05;;;21.60;;
66143;SDS011;52947;50.842;6.084;2022-12-07T04:44:22;35.28;;;21.27;;
66143;SDS011;52947;50.842;6.084;2022-12-07T04:46:51;37.13;;;21.08;;
66143;SDS011;52947;50.842;6.084;2022-12-07T04:49:20;33.45;;;18.98;;
66143;SDS011;52947;50.842;6.084;2022-12-07T04:51:48;30.48;;;18.33;;
66143;SDS011;52947;50.842;6.084;2022-12-07T04:54:16;38.65;;;21.08;;
66143;SDS011;52947;50.842;6.084;2022-12-07T04:56:46;35.63;;;19.77;;
66143;SDS011;52947;50.842;6.084;2022-12-07T04:59:15;33.50;;;19.75;;
66143;SDS011;52947;50.842;6.084;2022-12-07T05:01:43;31.95;;;20.83;;
66143;SDS011;52947;50.842;6.084;2022-12-07T05:04:11;29.08;;;18.35;;
66143;SDS011;52947;50.842;6.084;2022-12-07T05:06:39;34.95;;;18.60;;
66143;SDS011;52947;50.842;6.084;2022-12-07T05:09:07;30.65;;;17.80;;
66143;SDS011;52947;50.842;6.084;2022-12-07T05:11:35;34.88;;;19.40;;
66143;SDS011;52947;50.842;6.084;2022-12-07T05:14:08;33.50;;;18.25;;
66143;SDS011;52947;50.842;6.084;2022-12-07T05:16:38;29.83;;;17.35;;
66143;SDS011;52947;50.842;6.084;2022-12-07T05:19:07;34.03;;;18.42;;
66143;SDS011;52947;50.842;6.084;2022-12-07T05:21:35;32.13;;;18.43;;
66143;SDS011;52947;50.842;6.084;2022-12-07T05:24:04;31.80;;;17.08;;
66143;SDS011;52947;50.842;6.084;2022-12-07T05:26:32;33.42;;;17.70;;
66143;SDS011;52947;50.842;6.084;2022-12-07T05:29:00;30.05;;;17.85;;
66143;SDS011;52947;50.842;6.084;2022-12-07T05:31:29;28.40;;;17.80;;
66143;SDS011;52947;50.842;6.084;2022-12-07T05:33:57;35.08;;;17.42;;
66143;SDS011;52947;50.842;6.084;2022-12-07T05:36:25;28.23;;;17.08;;
66143;SDS011;52947;50.842;6.084;2022-12-07T05:38:54;29.63;;;16.40;;
66143;SDS011;52947;50.842;6.084;2022-12-07T05:41:22;25.83;;;16.65;;
66143;SDS011;52947;50.842;6.084;2022-12-07T05:44:08;26.48;;;15.75;;
66143;SDS011;52947;50.842;6.084;2022-12-07T05:46:37;27.05;;;15.68;;
66143;SDS011;52947;50.842;6.084;2022-12-07T05:49:05;30.58;;;14.65;;
66143;SDS011;52947;50.842;6.084;2022-12-07T05:51:33;28.42;;;15.95;;
66143;SDS011;52947;50.842;6.084;2022-12-07T05:54:01;25.42;;;14.32;;
66143;SDS011;52947;50.842;6.084;2022-12-07T05:56:28;25.38;;;14.90;;
66143;SDS011;52947;50.842;6.084;2022-12-07T05:58:56;28.38;;;14.85;;
66143;SDS011;52947;50.842;6.084;2022-12-07T06:01:43;24.15;;;15.35;;
66143;SDS011;52947;50.842;6.084;2022-12-07T06:04:11;27.58;;;15.25;;
66143;SDS011;52947;50.842;6.084;2022-12-07T06:06:38;27.77;;;15.52;;
66143;SDS011;52947;50.842;6.084;2022-12-07T06:09:06;24.92;;;16.40;;
66143;SDS011;52947;50.842;6.084;2022-12-07T06:11:34;30.55;;;17.23;;
66143;SDS011;52947;50.842;6.084;2022-12-07T06:14:19;27.23;;;16.42;;
66143;SDS011;52947;50.842;6.084;2022-12-07T06:16:49;30.27;;;16.90;;
66143;SDS011;52947;50.842;6.084;2022-12-07T06:19:17;27.88;;;17.42;;
66143;SDS011;52947;50.842;6.084;2022-12-07T06:21:45;25.38;;;16.83;;
66143;SDS011;52947;50.842;6.084;2022-12-07T06:24:13;27.52;;;16.70;;
66143;SDS011;52947;50.842;6.084;2022-12-07T06:29:10;30.90;;;16.50;;
66143;SDS011;52947;50.842;6.084;2022-12-07T06:31:39;26.85;;;17.27;;
66143;SDS011;52947;50.842;6.084;2022-12-07T06:34:10;26.50;;;17.00;;
66143;SDS011;52947;50.842;6.084;2022-12-07T06:36:39;25.52;;;16.88;;
66143;SDS011;52947;50.842;6.084;2022-12-07T06:39:07;32.15;;;17.65;;
66143;SDS011;52947;50.842;6.084;2022-12-07T06:41:35;31.83;;;18.10;;
66143;SDS011;52947;50.842;6.084;2022-12-07T06:44:04;28.67;;;16.83;;
66143;SDS011;52947;50.842;6.084;2022-12-07T06:46:32;34.65;;;17.98;;
66143;SDS011;52947;50.842;6.084;2022-12-07T06:49:01;30.75;;;18.05;;
66143;SDS011;52947;50.842;6.084;2022-12-07T06:51:31;31.23;;;18.20;;
66143;SDS011;52947;50.842;6.084;2022-12-07T06:54:01;29.52;;;18.00;;
66143;SDS011;52947;50.842;6.084;2022-12-07T06:56:29;29.95;;;18.70;;
66143;SDS011;52947;50.842;6.084;2022-12-07T06:58:57;32.65;;;18.73;;
66143;SDS011;52947;50.842;6.084;2022-12-07T07:01:25;36.92;;;19.65;;
66143;SDS011;52947;50.842;6.084;2022-12-07T07:03:53;30.83;;;18.30;;
66143;SDS011;52947;50.842;6.084;2022-12-07T07:06:20;31.25;;;19.90;;
66143;SDS011;52947;50.842;6.084;2022-12-07T07:08:50;35.58;;;21.45;;
66143;SDS011;52947;50.842;6.084;2022-12-07T07:11:18;40.08;;;21.48;;
66143;SDS011;52947;50.842;6.084;2022-12-07T07:13:46;35.42;;;19.25;;
66143;SDS011;52947;50.842;6.084;2022-12-07T07:16:14;31.00;;;18.40;;
66143;SDS011;52947;50.842;6.084;2022-12-07T07:18:42;32.35;;;18.83;;
66143;SDS011;52947;50.842;6.084;2022-12-07T07:21:10;29.92;;;19.35;;
66143;SDS011;52947;50.842;6.084;2022-12-07T07:23:37;31.80;;;18.77;;
66143;SDS011;52947;50.842;6.084;2022-12-07T07:26:06;39.33;;;19.20;;
66143;SDS011;52947;50.842;6.084;2022-12-07T07:28:34;38.72;;;20.67;;
66143;SDS011;52947;50.842;6.084;2022-12-07T07:31:02;35.70;;;19.50;;
66143;SDS011;52947;50.842;6.084;2022-12-07T07:33:30;34.70;;;19.30;;
66143;SDS011;52947;50.842;6.084;2022-12-07T07:35:58;26.65;;;17.15;;
66143;SDS011;52947;50.842;6.084;2022-12-07T07:38:26;37.05;;;19.42;;
66143;SDS011;52947;50.842;6.084;2022-12-07T07:40:54;34.58;;;18.98;;
66143;SDS011;52947;50.842;6.084;2022-12-07T07:43:23;33.15;;;17.77;;
66143;SDS011;52947;50.842;6.084;2022-12-07T07:45:51;32.60;;;19.05;;
66143;SDS011;52947;50.842;6.084;2022-12-07T07:48:19;31.95;;;18.67;;
66143;SDS011;52947;50.842;6.084;2022-12-07T07:50:48;27.40;;;19.27;;
66143;SDS011;52947;50.842;6.084;2022-12-07T07:53:16;30.42;;;18.55;;
66143;SDS011;52947;50.842;6.084;2022-12-07T07:55:49;30.48;;;19.63;;
66143;SDS011;52947;50.842;6.084;2022-12-07T07:58:18;30.52;;;18.60;;
66143;SDS011;52947;50.842;6.084;2022-12-07T08:00:47;28.10;;;17.83;;
66143;SDS011;52947;50.842;6.084;2022-12-07T08:03:15;32.42;;;18.77;;
66143;SDS011;52947;50.842;6.084;2022-12-07T08:05:42;28.20;;;18.02;;
66143;SDS011;52947;50.842;6.084;2022-12-07T08:08:10;28.60;;;16.25;;
66143;SDS011;52947;50.842;6.084;2022-12-07T08:10:38;25.42;;;16.52;;
66143;SDS011;52947;50.842;6.084;2022-12-07T08:13:06;30.92;;;16.42;;
66143;SDS011;52947;50.842;6.084;2022-12-07T08:15:41;28.40;;;17.63;;
66143;SDS011;52947;50.842;6.084;2022-12-07T08:18:12;28.70;;;18.05;;
66143;SDS011;52947;50.842;6.084;2022-12-07T08:20:41;26.58;;;16.02;;
66143;SDS011;52947;50.842;6.084;2022-12-07T08:23:09;26.10;;;16.75;;
66143;SDS011;52947;50.842;6.084;2022-12-07T08:25:37;25.88;;;15.32;;
66143;SDS011;52947;50.842;6.084;2022-12-07T08:28:06;22.75;;;14.73;;
66143;SDS011;52947;50.842;6.084;2022-12-07T08:30:34;25.73;;;15.80;;
66143;SDS011;52947;50.842;6.084;2022-12-07T08:33:02;24.63;;;14.57;;
66143;SDS011;52947;50.842;6.084;2022-12-07T08:35:33;19.35;;;12.93;;
66143;SDS011;52947;50.842;6.084;2022-12-07T08:38:01;22.85;;;10.95;;
66143;SDS011;52947;50.842;6.084;2022-12-07T08:40:30;19.83;;;11.15;;
66143;SDS011;52947;50.842;6.084;2022-12-07T08:42:57;19.60;;;11.48;;
66143;SDS011;52947;50.842;6.084;2022-12-07T08:45:25;24.77;;;11.88;;
66143;SDS011;52947;50.842;6.084;2022-12-07T08:47:54;22.98;;;13.38;;
66143;SDS011;52947;50.842;6.084;2022-12-07T08:50:25;19.15;;;11.43;;
66143;SDS011;52947;50.842;6.084;2022-12-07T08:52:55;26.17;;;12.63;;
66143;SDS011;52947;50.842;6.084;2022-12-07T08:55:26;25.88;;;13.80;;
66143;SDS011;52947;50.842;6.084;2022-12-07T08:57:55;23.45;;;13.50;;
66143;SDS011;52947;50.842;6.084;2022-12-07T09:00:24;21.77;;;13.55;;
66143;SDS011;52947;50.842;6.084;2022-12-07T09:02:53;20.92;;;12.20;;
66143;SDS011;52947;50.842;6.084;2022-12-07T09:05:21;28.13;;;14.63;;
66143;SDS011;52947;50.842;6.084;2022-12-07T09:07:50;26.08;;;14.15;;
66143;SDS011;52947;50.842;6.084;2022-12-07T09:10:22;29.88;;;13.98;;
66143;SDS011;52947;50.842;6.084;2022-12-07T09:12:50;27.60;;;15.57;;
66143;SDS011;52947;50.842;6.084;2022-12-07T09:15:18;26.85;;;15.38;;
66143;SDS011;52947;50.842;6.084;2022-12-07T09:17:46;23.90;;;14.85;;
66143;SDS011;52947;50.842;6.084;2022-12-07T09:20:14;28.38;;;16.02;;
66143;SDS011;52947;50.842;6.084;2022-12-07T09:22:42;27.00;;;14.27;;
66143;SDS011;52947;50.842;6.084;2022-12-07T09:25:10;28.38;;;16.90;;
66143;SDS011;52947;50.842;6.084;2022-12-07T09:27:39;28.08;;;15.15;;
66143;SDS011;52947;50.842;6.084;2022-12-07T09:30:07;27.60;;;14.27;;
66143;SDS011;52947;50.842;6.084;2022-12-07T09:32:35;26.77;;;14.88;;
66143;SDS011;52947;50.842;6.084;2022-12-07T09:35:03;25.20;;;15.85;;
66143;SDS011;52947;50.842;6.084;2022-12-07T09:37:31;28.27;;;16.27;;
66143;SDS011;52947;50.842;6.084;2022-12-07T09:40:02;29.27;;;15.52;;
66143;SDS011;52947;50.842;6.084;2022-12-07T09:42:32;27.38;;;15.75;;
66143;SDS011;52947;50.842;6.084;2022-12-07T09:45:05;29.75;;;16.23;;
66143;SDS011;52947;50.842;6.084;2022-12-07T09:47:35;32.28;;;17.20;;
66143;SDS011;52947;50.842;6.084;2022-12-07T09:50:04;26.73;;;17.45;;
66143;SDS011;52947;50.842;6.084;2022-12-07T09:52:35;34.85;;;17.60;;
66143;SDS011;52947;50.842;6.084;2022-12-07T09:55:07;29.85;;;18.25;;
66143;SDS011;52947;50.842;6.084;2022-12-07T09:57:38;28.73;;;17.70;;
66143;SDS011;52947;50.842;6.084;2022-12-07T10:00:10;28.30;;;16.63;;
66143;SDS011;52947;50.842;6.084;2022-12-07T10:02:41;26.17;;;15.70;;
66143;SDS011;52947;50.842;6.084;2022-12-07T10:05:12;27.85;;;16.08;;
66143;SDS011;52947;50.842;6.084;2022-12-07T10:07:49;36.67;;;17.57;;
66143;SDS011;52947;50.842;6.084;2022-12-07T10:10:18;29.58;;;16.33;;
66143;SDS011;52947;50.842;6.084;2022-12-07T10:12:55;29.38;;;15.60;;
66143;SDS011;52947;50.842;6.084;2022-12-07T10:15:43;30.52;;;16.67;;
66143;SDS011;52947;50.842;6.084;2022-12-07T10:18:26;22.55;;;15.27;;
66143;SDS011;52947;50.842;6.084;2022-12-07T10:21:00;26.83;;;15.65;;
66143;SDS011;52947;50.842;6.084;2022-12-07T10:23:58;28.55;;;16.92;;
66143;SDS011;52947;50.842;6.084;2022-12-07T10:26:32;28.58;;;15.98;;
66143;SDS011;52947;50.842;6.084;2022-12-07T10:29:02;24.55;;;15.20;;
66143;SDS011;52947;50.842;6.084;2022-12-07T10:31:43;19.85;;;14.32;;
66143;SDS011;52947;50.842;6.084;2022-12-07T10:34:15;30.65;;;16.40;;
66143;SDS011;52947;50.842;6.084;2022-12-07T10:36:50;24.35;;;14.63;;
66143;SDS011;52947;50.842;6.084;2022-12-07T10:39:19;29.17;;;17.20;;
66143;SDS011;52947;50.842;6.084;2022-12-07T10:44:24;24.75;;;14.98;;
66143;SDS011;52947;50.842;6.084;2022-12-07T10:47:02;25.70;;;13.57;;
66143;SDS011;52947;50.842;6.084;2022-12-07T10:49:54;21.38;;;14.25;;
66143;SDS011;52947;50.842;6.084;2022-12-07T10:55:54;26.98;;;13.90;;
66143;SDS011;52947;50.842;6.084;2022-12-07T10:58:31;22.33;;;13.65;;
66143;SDS011;52947;50.842;6.084;2022-12-07T11:01:14;20.20;;;13.75;;
66143;SDS011;52947;50.842;6.084;2022-12-07T11:03:54;22.02;;;13.07;;
66143;SDS011;52947;50.842;6.084;2022-12-07T11:06:44;17.20;;;10.15;;
66143;SDS011;52947;50.842;6.084;2022-12-07T11:09:30;14.25;;;10.23;;
66143;SDS011;52947;50.842;6.084;2022-12-07T11:12:33;19.27;;;10.48;;
66143;SDS011;52947;50.842;6.084;2022-12-07T11:15:12;18.27;;;11.00;;
66143;SDS011;52947;50.842;6.084;2022-12-07T11:17:45;14.75;;;9.80;;
66143;SDS011;52947;50.842;6.084;2022-12-07T11:20:27;17.52;;;9.88;;
66143;SDS011;52947;50.842;6.084;2022-12-07T11:23:03;23.90;;;11.60;;
66143;SDS011;52947;50.842;6.084;2022-12-07T11:25:41;16.25;;;9.75;;
66143;SDS011;52947;50.842;6.084;2022-12-07T11:28:23;22.75;;;11.30;;
66143;SDS011;52947;50.842;6.084;2022-12-07T11:31:02;18.75;;;10.55;;
66143;SDS011;52947;50.842;6.084;2022-12-07T11:33:37;18.10;;;10.43;;
66143;SDS011;52947;50.842;6.084;2022-12-07T11:36:17;15.95;;;10.82;;
66143;SDS011;52947;50.842;6.084;2022-12-07T11:38:59;17.85;;;9.55;;
66143;SDS011;52947;50.842;6.084;2022-12-07T11:41:30;14.52;;;9.23;;
66143;SDS011;52947;50.842;6.084;2022-12-07T11:44:04;14.52;;;8.60;;
66143;SDS011;52947;50.842;6.084;2022-12-07T11:46:46;15.07;;;8.70;;
66143;SDS011;52947;50.842;6.084;2022-12-07T11:49:19;13.82;;;8.13;;
66143;SDS011;52947;50.842;6.084;2022-12-07T11:51:56;12.88;;;8.65;;
66143;SDS011;52947;50.842;6.084;2022-12-07T11:54:27;13.40;;;7.95;;
66143;SDS011;52947;50.842;6.084;2022-12-07T11:57:00;13.10;;;7.47;;
66143;SDS011;52947;50.842;6.084;2022-12-07T11:59:33;15.02;;;7.00;;
66143;SDS011;52947;50.842;6.084;2022-12-07T12:02:11;10.45;;;7.22;;
66143;SDS011;52947;50.842;6.084;2022-12-07T12:04:45;11.77;;;7.05;;
66143;SDS011;52947;50.842;6.084;2022-12-07T12:07:21;13.30;;;7.00;;
66143;SDS011;52947;50.842;6.084;2022-12-07T12:10:14;12.70;;;7.03;;
66143;SDS011;52947;50.842;6.084;2022-12-07T12:12:54;12.98;;;6.43;;
66143;SDS011;52947;50.842;6.084;2022-12-07T12:15:57;15.90;;;6.40;;
66143;SDS011;52947;50.842;6.084;2022-12-07T12:18:37;11.98;;;7.00;;
66143;SDS011;52947;50.842;6.084;2022-12-07T12:21:13;14.40;;;6.85;;
66143;SDS011;52947;50.842;6.084;2022-12-07T12:23:47;14.35;;;7.03;;
66143;SDS011;52947;50.842;6.084;2022-12-07T12:26:19;9.00;;;6.63;;
66143;SDS011;52947;50.842;6.084;2022-12-07T12:28:50;9.35;;;5.88;;
66143;SDS011;52947;50.842;6.084;2022-12-07T12:31:32;9.70;;;5.65;;
66143;SDS011;52947;50.842;6.084;2022-12-07T12:36:59;9.77;;;5.88;;
66143;SDS011;52947;50.842;6.084;2022-12-07T12:39:28;10.68;;;5.07;;
66143;SDS011;52947;50.842;6.084;2022-12-07T12:47:52;9.05;;;4.78;;
66143;SDS011;52947;50.842;6.084;2022-12-07T12:50:23;12.05;;;5.70;;
66143;SDS011;52947;50.842;6.084;2022-12-07T12:52:54;8.32;;;4.70;;
66143;SDS011;52947;50.842;6.084;2022-12-07T12:55:31;10.88;;;5.07;;
66143;SDS011;52947;50.842;6.084;2022-12-07T12:58:33;13.45;;;5.45;;
66143;SDS011;52947;50.842;6.084;2022-12-07T13:10:21;10.73;;;6.13;;
66143;SDS011;52947;50.842;6.084;2022-12-07T13:13:04;9.63;;;5.95;;
66143;SDS011;52947;50.842;6.084;2022-12-07T13:15:52;12.32;;;5.75;;
66143;SDS011;52947;50.842;6.084;2022-12-07T13:18:23;11.10;;;6.00;;
66143;SDS011;52947;50.842;6.084;2022-12-07T13:20:52;16.50;;;6.80;;
66143;SDS011;52947;50.842;6.084;2022-12-07T13:23:26;8.65;;;6.25;;
66143;SDS011;52947;50.842;6.084;2022-12-07T13:26:14;11.52;;;6.63;;
66143;SDS011;52947;50.842;6.084;2022-12-07T13:28:44;11.23;;;5.82;;
66143;SDS011;52947;50.842;6.084;2022-12-07T13:31:18;14.02;;;5.75;;
66143;SDS011;52947;50.842;6.084;2022-12-07T13:33:50;12.68;;;6.05;;
66143;SDS011;52947;50.842;6.084;2022-12-07T13:36:21;9.32;;;5.05;;
66143;SDS011;52947;50.842;6.084;2022-12-07T13:38:51;8.68;;;5.53;;
66143;SDS011;52947;50.842;6.084;2022-12-07T13:41:23;11.38;;;6.00;;
66143;SDS011;52947;50.842;6.084;2022-12-07T13:43:53;12.50;;;5.72;;
66143;SDS011;52947;50.842;6.084;2022-12-07T13:46:30;9.32;;;5.60;;
66143;SDS011;52947;50.842;6.084;2022-12-07T13:49:15;13.82;;;5.55;;
66143;SDS011;52947;50.842;6.084;2022-12-07T13:51:45;12.90;;;6.10;;
66143;SDS011;52947;50.842;6.084;2022-12-07T13:54:13;8.52;;;5.38;;
66143;SDS011;52947;50.842;6.084;2022-12-07T13:56:43;11.90;;;6.10;;
66143;SDS011;52947;50.842;6.084;2022-12-07T13:59:16;15.93;;;6.78;;
66143;SDS011;52947;50.842;6.084;2022-12-07T14:01:46;12.77;;;6.20;;
66143;SDS011;52947;50.842;6.084;2022-12-07T14:04:16;8.50;;;5.55;;
66143;SDS011;52947;50.842;6.084;2022-12-07T14:06:56;11.75;;;5.72;;
66143;SDS011;52947;50.842;6.084;2022-12-07T14:09:25;17.27;;;6.43;;
66143;SDS011;52947;50.842;6.084;2022-12-07T14:11:56;11.23;;;6.43;;
66143;SDS011;52947;50.842;6.084;2022-12-07T14:14:25;9.95;;;6.65;;
66143;SDS011;52947;50.842;6.084;2022-12-07T14:17:08;12.18;;;6.55;;
66143;SDS011;52947;50.842;6.084;2022-12-07T14:19:41;13.32;;;6.70;;
66143;SDS011;52947;50.842;6.084;2022-12-07T14:22:27;10.27;;;5.85;;
66143;SDS011;52947;50.842;6.084;2022-12-07T14:25:01;8.30;;;5.75;;
66143;SDS011;52947;50.842;6.084;2022-12-07T14:27:50;12.75;;;5.53;;
66143;SDS011;52947;50.842;6.084;2022-12-07T14:30:22;14.20;;;6.22;;
66143;SDS011;52947;50.842;6.084;2022-12-07T14:32:52;9.95;;;5.55;;
66143;SDS011;52947;50.842;6.084;2022-12-07T14:35:22;11.27;;;5.45;;
66143;SDS011;52947;50.842;6.084;2022-12-07T14:37:50;10.98;;;5.88;;
66143;SDS011;52947;50.842;6.084;2022-12-07T14:40:19;12.10;;;6.80;;
66143;SDS011;52947;50.842;6.084;2022-12-07T14:42:50;12.65;;;6.35;;
66143;SDS011;52947;50.842;6.084;2022-12-07T14:45:21;11.55;;;5.95;;
66143;SDS011;52947;50.842;6.084;2022-12-07T14:47:49;9.60;;;5.35;;
66143;SDS011;52947;50.842;6.084;2022-12-07T14:50:38;10.05;;;5.72;;
66143;SDS011;52947;50.842;6.084;2022-12-07T14:53:31;13.60;;;6.13;;
66143;SDS011;52947;50.842;6.084;2022-12-07T14:56:03;11.95;;;5.82;;
66143;SDS011;52947;50.842;6.084;2022-12-07T14:58:34;13.13;;;6.70;;
66143;SDS011;52947;50.842;6.084;2022-12-07T15:03:29;13.80;;;6.10;;
66143;SDS011;52947;50.842;6.084;2022-12-07T15:05:57;10.50;;;6.20;;
66143;SDS011;52947;50.842;6.084;2022-12-07T15:08:25;15.77;;;6.53;;
66143;SDS011;52947;50.842;6.084;2022-12-07T15:10:53;11.15;;;6.15;;
66143;SDS011;52947;50.842;6.084;2022-12-07T15:13:21;11.45;;;6.32;;
66143;SDS011;52947;50.842;6.084;2022-12-07T15:16:09;12.73;;;6.20;;
66143;SDS011;52947;50.842;6.084;2022-12-07T15:18:38;15.70;;;5.78;;
66143;SDS011;52947;50.842;6.084;2022-12-07T15:21:23;12.77;;;5.20;;
66143;SDS011;52947;50.842;6.084;2022-12-07T15:23:51;8.35;;;5.63;;
66143;SDS011;52947;50.842;6.084;2022-12-07T15:28:48;12.45;;;6.03;;
66143;SDS011;52947;50.842;6.084;2022-12-07T15:31:17;13.02;;;6.03;;
66143;SDS011;52947;50.842;6.084;2022-12-07T15:34:05;14.75;;;6.55;;
66143;SDS011;52947;50.842;6.084;2022-12-07T15:36:33;17.27;;;6.53;;
66143;SDS011;52947;50.842;6.084;2022-12-07T15:39:02;10.52;;;6.45;;
66143;SDS011;52947;50.842;6.084;2022-12-07T15:41:40;18.08;;;7.03;;
66143;SDS011;52947;50.842;6.084;2022-12-07T15:44:08;9.25;;;6.28;;
66143;SDS011;52947;50.842;6.084;2022-12-07T15:46:58;12.93;;;6.90;;
66143;SDS011;52947;50.842;6.084;2022-12-07T15:49:26;10.48;;;5.88;;